sensor_id;sensor_type;location;lat;lon;timestamp;P1;P2;P0
44674;PMS5003;30388;52.038;-1.478;2022-10-16T00:00:47;5328;5328;
44674;PMS5003;30388;52.038;-1.478;2022-10-16T00:03:14;5317;5317;
44674;PMS5003;30388;52.038;-1.478;2022-10-16T00:05:42;5339;5339;
44674;PMS5003;30388;52.038;-1.478;2022-10-16T00:08:11;5339;5339;
44674;PMS5003;30388;52.038;-1.478;2022-10-16T00:10:38;5339;5339;
44674;PMS5003;30388;52.038;-1.478;2022-10-16T00:13:07;5339;5339;
44674;PMS5003;30388;52.038;-1.478;2022-10-16T00:15:35;5339;5339;
44674;PMS5003;30388;52.038;-1.478;2022-10-16T00:18:03;5339;5339;
44674;PMS5003;30388;52.038;-1.478;2022-10-16T00:20:33;5362;5362;
44674;PMS5003;30388;52.038;-1.478;2022-10-16T00:23:01;5362;5362;
44674;PMS5003;30388;52.038;-1.478;2022-10-16T00:25:28;5351;5351;
44674;PMS5003;30388;52.038;-1.478;2022-10-16T00:27:55;5339;5339;
44674;PMS5003;30388;52.038;-1.478;2022-10-16T00:30:22;5351;5351;
44674;PMS5003;30388;52.038;-1.478;2022-10-16T00:32:50;5339;5339;
44674;PMS5003;30388;52.038;-1.478;2022-10-16T00:35:17;5339;5339;
44674;PMS5003;30388;52.038;-1.478;2022-10-16T00:37:44;5339;5339;
44674;PMS5003;30388;52.038;-1.478;2022-10-16T00:40:11;5339;5339;
44674;PMS5003;30388;52.038;-1.478;2022-10-16T00:42:38;5351;5351;
44674;PMS5003;30388;52.038;-1.478;2022-10-16T00:45:06;5351;5351;
44674;PMS5003;30388;52.038;-1.478;2022-10-16T00:47:36;5385;5385;
44674;PMS5003;30388;52.038;-1.478;2022-10-16T00:50:08;5339;5339;
44674;PMS5003;30388;52.038;-1.478;2022-10-16T00:52:38;5351;5351;
44674;PMS5003;30388;52.038;-1.478;2022-10-16T00:55:10;5351;5351;
44674;PMS5003;30388;52.038;-1.478;2022-10-16T00:57:37;5351;5351;
44674;PMS5003;30388;52.038;-1.478;2022-10-16T01:00:06;5351;5351;
44674;PMS5003;30388;52.038;-1.478;2022-10-16T01:02:37;5339;5339;
44674;PMS5003;30388;52.038;-1.478;2022-10-16T01:05:04;5305;5305;
44674;PMS5003;30388;52.038;-1.478;2022-10-16T01:07:36;5339;5339;
44674;PMS5003;30388;52.038;-1.478;2022-10-16T01:10:14;5339;5339;
44674;PMS5003;30388;52.038;-1.478;2022-10-16T01:12:53;5339;5339;
44674;PMS5003;30388;52.038;-1.478;2022-10-16T01:15:27;5339;5339;
44674;PMS5003;30388;52.038;-1.478;2022-10-16T01:18:00;5283;5283;
44674;PMS5003;30388;52.038;-1.478;2022-10-16T01:20:34;5328;5328;
44674;PMS5003;30388;52.038;-1.478;2022-10-16T01:23:09;5351;5351;
44674;PMS5003;30388;52.038;-1.478;2022-10-16T01:25:53;5328;5328;
44674;PMS5003;30388;52.038;-1.478;2022-10-16T01:28:36;5339;5339;
44674;PMS5003;30388;52.038;-1.478;2022-10-16T01:31:08;5339;5339;
44674;PMS5003;30388;52.038;-1.478;2022-10-16T01:33:39;5339;5339;
44674;PMS5003;30388;52.038;-1.478;2022-10-16T01:36:11;5339;5339;
44674;PMS5003;30388;52.038;-1.478;2022-10-16T01:38:43;5351;5351;
44674;PMS5003;30388;52.038;-1.478;2022-10-16T01:41:15;5339;5339;
44674;PMS5003;30388;52.038;-1.478;2022-10-16T01:43:48;5261;5261;
44674;PMS5003;30388;52.038;-1.478;2022-10-16T01:46:18;5351;5351;
44674;PMS5003;30388;52.038;-1.478;2022-10-16T01:48:49;5351;5351;
44674;PMS5003;30388;52.038;-1.478;2022-10-16T01:51:18;5373;5373;
44674;PMS5003;30388;52.038;-1.478;2022-10-16T01:53:48;5385;5385;
44674;PMS5003;30388;52.038;-1.478;2022-10-16T01:56:19;5385;5385;
44674;PMS5003;30388;52.038;-1.478;2022-10-16T01:58:49;5396;5396;
44674;PMS5003;30388;52.038;-1.478;2022-10-16T02:01:22;5396;5396;
44674;PMS5003;30388;52.038;-1.478;2022-10-16T02:03:54;5396;5396;
44674;PMS5003;30388;52.038;-1.478;2022-10-16T02:06:25;5385;5385;
44674;PMS5003;30388;52.038;-1.478;2022-10-16T02:08:53;5373;5373;
44674;PMS5003;30388;52.038;-1.478;2022-10-16T02:11:20;5385;5385;
44674;PMS5003;30388;52.038;-1.478;2022-10-16T02:13:48;5362;5362;
44674;PMS5003;30388;52.038;-1.478;2022-10-16T02:16:20;5362;5362;
44674;PMS5003;30388;52.038;-1.478;2022-10-16T02:18:58;5351;5351;
44674;PMS5003;30388;52.038;-1.478;2022-10-16T02:21:26;5373;5373;
44674;PMS5003;30388;52.038;-1.478;2022-10-16T02:24:00;5373;5373;
44674;PMS5003;30388;52.038;-1.478;2022-10-16T02:26:35;5373;5373;
44674;PMS5003;30388;52.038;-1.478;2022-10-16T02:29:09;5420;5420;
44674;PMS5003;30388;52.038;-1.478;2022-10-16T02:31:41;5351;5351;
44674;PMS5003;30388;52.038;-1.478;2022-10-16T02:34:12;5373;5373;
44674;PMS5003;30388;52.038;-1.478;2022-10-16T02:36:41;5328;5328;
44674;PMS5003;30388;52.038;-1.478;2022-10-16T02:39:11;5339;5339;
44674;PMS5003;30388;52.038;-1.478;2022-10-16T02:41:38;5339;5339;
44674;PMS5003;30388;52.038;-1.478;2022-10-16T02:44:05;5328;5328;
44674;PMS5003;30388;52.038;-1.478;2022-10-16T02:46:32;5317;5317;
44674;PMS5003;30388;52.038;-1.478;2022-10-16T02:49:00;5317;5317;
44674;PMS5003;30388;52.038;-1.478;2022-10-16T02:51:27;5305;5305;
44674;PMS5003;30388;52.038;-1.478;2022-10-16T02:53:54;5305;5305;
44674;PMS5003;30388;52.038;-1.478;2022-10-16T02:56:21;5339;5339;
44674;PMS5003;30388;52.038;-1.478;2022-10-16T02:58:48;5328;5328;
44674;PMS5003;30388;52.038;-1.478;2022-10-16T03:01:15;5328;5328;
44674;PMS5003;30388;52.038;-1.478;2022-10-16T03:03:42;5328;5328;
44674;PMS5003;30388;52.038;-1.478;2022-10-16T03:06:09;5317;5317;
44674;PMS5003;30388;52.038;-1.478;2022-10-16T03:08:37;5339;5339;
44674;PMS5003;30388;52.038;-1.478;2022-10-16T03:11:05;5339;5339;
44674;PMS5003;30388;52.038;-1.478;2022-10-16T03:13:32;5339;5339;
44674;PMS5003;30388;52.038;-1.478;2022-10-16T03:15:59;5339;5339;
44674;PMS5003;30388;52.038;-1.478;2022-10-16T03:18:26;5339;5339;
44674;PMS5003;30388;52.038;-1.478;2022-10-16T03:20:53;5339;5339;
44674;PMS5003;30388;52.038;-1.478;2022-10-16T03:23:20;5339;5339;
44674;PMS5003;30388;52.038;-1.478;2022-10-16T03:25:47;5328;5328;
44674;PMS5003;30388;52.038;-1.478;2022-10-16T03:28:14;5317;5317;
44674;PMS5003;30388;52.038;-1.478;2022-10-16T03:30:42;5305;5305;
44674;PMS5003;30388;52.038;-1.478;2022-10-16T03:33:10;5317;5317;
44674;PMS5003;30388;52.038;-1.478;2022-10-16T03:35:37;5385;5385;
44674;PMS5003;30388;52.038;-1.478;2022-10-16T03:38:04;5317;5317;
44674;PMS5003;30388;52.038;-1.478;2022-10-16T03:40:31;5305;5305;
44674;PMS5003;30388;52.038;-1.478;2022-10-16T03:42:58;5328;5328;
44674;PMS5003;30388;52.038;-1.478;2022-10-16T03:45:25;5328;5328;
44674;PMS5003;30388;52.038;-1.478;2022-10-16T03:47:52;5339;5339;
44674;PMS5003;30388;52.038;-1.478;2022-10-16T03:50:19;5339;5339;
44674;PMS5003;30388;52.038;-1.478;2022-10-16T03:52:46;5339;5339;
44674;PMS5003;30388;52.038;-1.478;2022-10-16T03:55:14;5317;5317;
44674;PMS5003;30388;52.038;-1.478;2022-10-16T03:57:41;5250;5250;
44674;PMS5003;30388;52.038;-1.478;2022-10-16T04:00:08;5339;5339;
44674;PMS5003;30388;52.038;-1.478;2022-10-16T04:02:38;5328;5328;
44674;PMS5003;30388;52.038;-1.478;2022-10-16T04:05:06;5328;5328;
44674;PMS5003;30388;52.038;-1.478;2022-10-16T04:07:34;5317;5317;
44674;PMS5003;30388;52.038;-1.478;2022-10-16T04:10:01;5362;5362;
44674;PMS5003;30388;52.038;-1.478;2022-10-16T04:12:29;5328;5328;
44674;PMS5003;30388;52.038;-1.478;2022-10-16T04:14:56;5328;5328;
44674;PMS5003;30388;52.038;-1.478;2022-10-16T04:17:23;5339;5339;
44674;PMS5003;30388;52.038;-1.478;2022-10-16T04:19:50;5250;5250;
44674;PMS5003;30388;52.038;-1.478;2022-10-16T04:22:17;5328;5328;
44674;PMS5003;30388;52.038;-1.478;2022-10-16T04:24:44;5328;5328;
44674;PMS5003;30388;52.038;-1.478;2022-10-16T04:27:12;5339;5339;
44674;PMS5003;30388;52.038;-1.478;2022-10-16T04:29:39;5339;5339;
44674;PMS5003;30388;52.038;-1.478;2022-10-16T04:32:07;5339;5339;
44674;PMS5003;30388;52.038;-1.478;2022-10-16T04:34:38;5339;5339;
44674;PMS5003;30388;52.038;-1.478;2022-10-16T04:37:06;5339;5339;
44674;PMS5003;30388;52.038;-1.478;2022-10-16T04:39:33;5351;5351;
44674;PMS5003;30388;52.038;-1.478;2022-10-16T04:42:00;5272;5272;
44674;PMS5003;30388;52.038;-1.478;2022-10-16T04:44:28;5351;5351;
44674;PMS5003;30388;52.038;-1.478;2022-10-16T04:46:55;5362;5362;
44674;PMS5003;30388;52.038;-1.478;2022-10-16T04:49:22;5362;5362;
44674;PMS5003;30388;52.038;-1.478;2022-10-16T04:51:49;5362;5362;
44674;PMS5003;30388;52.038;-1.478;2022-10-16T04:54:16;5373;5373;
44674;PMS5003;30388;52.038;-1.478;2022-10-16T04:56:43;5362;5362;
44674;PMS5003;30388;52.038;-1.478;2022-10-16T04:59:10;5362;5362;
44674;PMS5003;30388;52.038;-1.478;2022-10-16T05:01:38;5373;5373;
44674;PMS5003;30388;52.038;-1.478;2022-10-16T05:04:05;5373;5373;
44674;PMS5003;30388;52.038;-1.478;2022-10-16T05:06:32;5373;5373;
44674;PMS5003;30388;52.038;-1.478;2022-10-16T05:08:59;5373;5373;
44674;PMS5003;30388;52.038;-1.478;2022-10-16T05:11:26;5385;5385;
44674;PMS5003;30388;52.038;-1.478;2022-10-16T05:13:53;5373;5373;
44674;PMS5003;30388;52.038;-1.478;2022-10-16T05:16:20;5373;5373;
44674;PMS5003;30388;52.038;-1.478;2022-10-16T05:18:48;5373;5373;
44674;PMS5003;30388;52.038;-1.478;2022-10-16T05:21:15;5373;5373;
44674;PMS5003;30388;52.038;-1.478;2022-10-16T05:23:42;5362;5362;
44674;PMS5003;30388;52.038;-1.478;2022-10-16T05:26:09;5362;5362;
44674;PMS5003;30388;52.038;-1.478;2022-10-16T05:28:36;5373;5373;
44674;PMS5003;30388;52.038;-1.478;2022-10-16T05:31:04;5373;5373;
44674;PMS5003;30388;52.038;-1.478;2022-10-16T05:33:32;5362;5362;
44674;PMS5003;30388;52.038;-1.478;2022-10-16T05:36:01;5351;5351;
44674;PMS5003;30388;52.038;-1.478;2022-10-16T05:38:29;5362;5362;
44674;PMS5003;30388;52.038;-1.478;2022-10-16T05:40:55;5351;5351;
44674;PMS5003;30388;52.038;-1.478;2022-10-16T05:43:23;5351;5351;
44674;PMS5003;30388;52.038;-1.478;2022-10-16T05:45:54;5339;5339;
44674;PMS5003;30388;52.038;-1.478;2022-10-16T05:48:21;5339;5339;
44674;PMS5003;30388;52.038;-1.478;2022-10-16T05:50:48;5339;5339;
44674;PMS5003;30388;52.038;-1.478;2022-10-16T05:53:23;5339;5339;
44674;PMS5003;30388;52.038;-1.478;2022-10-16T05:55:52;5305;5305;
44674;PMS5003;30388;52.038;-1.478;2022-10-16T05:58:19;5294;5294;
44674;PMS5003;30388;52.038;-1.478;2022-10-16T06:00:52;5294;5294;
44674;PMS5003;30388;52.038;-1.478;2022-10-16T06:03:21;5317;5317;
44674;PMS5003;30388;52.038;-1.478;2022-10-16T06:05:49;5328;5328;
44674;PMS5003;30388;52.038;-1.478;2022-10-16T06:08:16;5339;5339;
44674;PMS5003;30388;52.038;-1.478;2022-10-16T06:10:44;5351;5351;
44674;PMS5003;30388;52.038;-1.478;2022-10-16T06:13:14;5351;5351;
44674;PMS5003;30388;52.038;-1.478;2022-10-16T06:15:42;5362;5362;
44674;PMS5003;30388;52.038;-1.478;2022-10-16T06:18:10;5373;5373;
44674;PMS5003;30388;52.038;-1.478;2022-10-16T06:20:37;5362;5362;
44674;PMS5003;30388;52.038;-1.478;2022-10-16T06:23:05;5385;5385;
44674;PMS5003;30388;52.038;-1.478;2022-10-16T06:25:32;5339;5339;
44674;PMS5003;30388;52.038;-1.478;2022-10-16T06:27:59;5373;5373;
44674;PMS5003;30388;52.038;-1.478;2022-10-16T06:30:26;5362;5362;
44674;PMS5003;30388;52.038;-1.478;2022-10-16T06:32:53;5373;5373;
44674;PMS5003;30388;52.038;-1.478;2022-10-16T06:35:20;5351;5351;
44674;PMS5003;30388;52.038;-1.478;2022-10-16T06:37:47;5339;5339;
44674;PMS5003;30388;52.038;-1.478;2022-10-16T06:40:15;5351;5351;
44674;PMS5003;30388;52.038;-1.478;2022-10-16T06:42:42;5351;5351;
44674;PMS5003;30388;52.038;-1.478;2022-10-16T06:45:10;5339;5339;
44674;PMS5003;30388;52.038;-1.478;2022-10-16T06:47:37;5339;5339;
44674;PMS5003;30388;52.038;-1.478;2022-10-16T06:50:04;5351;5351;
44674;PMS5003;30388;52.038;-1.478;2022-10-16T06:52:32;5373;5373;
44674;PMS5003;30388;52.038;-1.478;2022-10-16T06:54:59;5373;5373;
44674;PMS5003;30388;52.038;-1.478;2022-10-16T06:57:26;5373;5373;
44674;PMS5003;30388;52.038;-1.478;2022-10-16T06:59:53;5351;5351;
44674;PMS5003;30388;52.038;-1.478;2022-10-16T07:02:21;5339;5339;
44674;PMS5003;30388;52.038;-1.478;2022-10-16T07:04:48;5328;5328;
44674;PMS5003;30388;52.038;-1.478;2022-10-16T07:07:15;5317;5317;
44674;PMS5003;30388;52.038;-1.478;2022-10-16T07:09:42;5339;5339;
44674;PMS5003;30388;52.038;-1.478;2022-10-16T07:12:10;5317;5317;
44674;PMS5003;30388;52.038;-1.478;2022-10-16T07:14:37;5305;5305;
44674;PMS5003;30388;52.038;-1.478;2022-10-16T07:17:04;5328;5328;
44674;PMS5003;30388;52.038;-1.478;2022-10-16T07:19:31;5283;5283;
44674;PMS5003;30388;52.038;-1.478;2022-10-16T07:21:58;5283;5283;
44674;PMS5003;30388;52.038;-1.478;2022-10-16T07:24:26;5272;5272;
44674;PMS5003;30388;52.038;-1.478;2022-10-16T07:26:53;5261;5261;
44674;PMS5003;30388;52.038;-1.478;2022-10-16T07:29:20;5250;5250;
44674;PMS5003;30388;52.038;-1.478;2022-10-16T07:31:48;5261;5261;
44674;PMS5003;30388;52.038;-1.478;2022-10-16T07:34:16;5239;5239;
44674;PMS5003;30388;52.038;-1.478;2022-10-16T07:36:47;5239;5239;
44674;PMS5003;30388;52.038;-1.478;2022-10-16T07:39:14;5250;5250;
44674;PMS5003;30388;52.038;-1.478;2022-10-16T07:41:41;5228;5228;
44674;PMS5003;30388;52.038;-1.478;2022-10-16T07:44:08;5228;5228;
44674;PMS5003;30388;52.038;-1.478;2022-10-16T07:46:36;5228;5228;
44674;PMS5003;30388;52.038;-1.478;2022-10-16T07:49:03;5228;5228;
44674;PMS5003;30388;52.038;-1.478;2022-10-16T07:51:30;5250;5250;
44674;PMS5003;30388;52.038;-1.478;2022-10-16T07:53:57;5228;5228;
44674;PMS5003;30388;52.038;-1.478;2022-10-16T07:56:25;5228;5228;
44674;PMS5003;30388;52.038;-1.478;2022-10-16T07:58:52;5250;5250;
44674;PMS5003;30388;52.038;-1.478;2022-10-16T08:01:19;5239;5239;
44674;PMS5003;30388;52.038;-1.478;2022-10-16T08:03:47;5283;5283;
44674;PMS5003;30388;52.038;-1.478;2022-10-16T08:06:16;5294;5294;
44674;PMS5003;30388;52.038;-1.478;2022-10-16T08:08:44;5294;5294;
44674;PMS5003;30388;52.038;-1.478;2022-10-16T08:11:11;5294;5294;
44674;PMS5003;30388;52.038;-1.478;2022-10-16T08:13:39;5305;5305;
44674;PMS5003;30388;52.038;-1.478;2022-10-16T08:16:06;5294;5294;
44674;PMS5003;30388;52.038;-1.478;2022-10-16T08:18:34;5294;5294;
44674;PMS5003;30388;52.038;-1.478;2022-10-16T08:21:01;5294;5294;
44674;PMS5003;30388;52.038;-1.478;2022-10-16T08:23:30;5261;5261;
44674;PMS5003;30388;52.038;-1.478;2022-10-16T08:26:01;5294;5294;
44674;PMS5003;30388;52.038;-1.478;2022-10-16T08:28:30;5294;5294;
44674;PMS5003;30388;52.038;-1.478;2022-10-16T08:31:04;5272;5272;
44674;PMS5003;30388;52.038;-1.478;2022-10-16T08:33:32;5283;5283;
44674;PMS5003;30388;52.038;-1.478;2022-10-16T08:35:59;5283;5283;
44674;PMS5003;30388;52.038;-1.478;2022-10-16T08:38:26;5207;5207;
44674;PMS5003;30388;52.038;-1.478;2022-10-16T08:40:53;5261;5261;
44674;PMS5003;30388;52.038;-1.478;2022-10-16T08:43:33;5261;5261;
44674;PMS5003;30388;52.038;-1.478;2022-10-16T08:46:14;5239;5239;
44674;PMS5003;30388;52.038;-1.478;2022-10-16T08:48:50;5217;5217;
44674;PMS5003;30388;52.038;-1.478;2022-10-16T08:51:21;5217;5217;
44674;PMS5003;30388;52.038;-1.478;2022-10-16T08:53:52;5207;5207;
44674;PMS5003;30388;52.038;-1.478;2022-10-16T08:56:23;5196;5196;
44674;PMS5003;30388;52.038;-1.478;2022-10-16T08:58:51;5164;5164;
44674;PMS5003;30388;52.038;-1.478;2022-10-16T09:01:20;5153;5153;
44674;PMS5003;30388;52.038;-1.478;2022-10-16T09:03:52;5122;5122;
44674;PMS5003;30388;52.038;-1.478;2022-10-16T09:06:34;5111;5111;
44674;PMS5003;30388;52.038;-1.478;2022-10-16T09:09:17;5070;5070;
44674;PMS5003;30388;52.038;-1.478;2022-10-16T09:11:55;5040;5040;
44674;PMS5003;30388;52.038;-1.478;2022-10-16T09:14:32;5000;5000;
44674;PMS5003;30388;52.038;-1.478;2022-10-16T09:17:16;5019;5019;
44674;PMS5003;30388;52.038;-1.478;2022-10-16T09:19:55;5000;5000;
44674;PMS5003;30388;52.038;-1.478;2022-10-16T09:22:41;5000;5000;
44674;PMS5003;30388;52.038;-1.478;2022-10-16T09:25:11;5000;5000;
44674;PMS5003;30388;52.038;-1.478;2022-10-16T09:27:40;5000;5000;
44674;PMS5003;30388;52.038;-1.478;2022-10-16T09:30:12;5000;5000;
44674;PMS5003;30388;52.038;-1.478;2022-10-16T09:32:41;5000;5000;
44674;PMS5003;30388;52.038;-1.478;2022-10-16T09:35:11;5000;5000;
44674;PMS5003;30388;52.038;-1.478;2022-10-16T09:37:42;5000;5000;
44674;PMS5003;30388;52.038;-1.478;2022-10-16T09:40:13;4990;4990;
44674;PMS5003;30388;52.038;-1.478;2022-10-16T09:42:50;5030;5030;
44674;PMS5003;30388;52.038;-1.478;2022-10-16T09:45:24;5000;5000;
44674;PMS5003;30388;52.038;-1.478;2022-10-16T09:47:51;5000;5000;
44674;PMS5003;30388;52.038;-1.478;2022-10-16T09:50:20;4990;4990;
44674;PMS5003;30388;52.038;-1.478;2022-10-16T09:52:50;4990;4990;
44674;PMS5003;30388;52.038;-1.478;2022-10-16T09:55:29;4990;4990;
44674;PMS5003;30388;52.038;-1.478;2022-10-16T09:57:57;4990;4990;
44674;PMS5003;30388;52.038;-1.478;2022-10-16T10:00:25;5000;5000;
44674;PMS5003;30388;52.038;-1.478;2022-10-16T10:02:53;5000;5000;
44674;PMS5003;30388;52.038;-1.478;2022-10-16T10:05:22;4990;4990;
44674;PMS5003;30388;52.038;-1.478;2022-10-16T10:07:54;4990;4990;
44674;PMS5003;30388;52.038;-1.478;2022-10-16T10:10:24;5000;5000;
44674;PMS5003;30388;52.038;-1.478;2022-10-16T10:12:53;4990;4990;
44674;PMS5003;30388;52.038;-1.478;2022-10-16T10:15:22;4990;4990;
44674;PMS5003;30388;52.038;-1.478;2022-10-16T10:17:51;5000;5000;
44674;PMS5003;30388;52.038;-1.478;2022-10-16T10:20:23;4990;4990;
44674;PMS5003;30388;52.038;-1.478;2022-10-16T10:22:53;4990;4990;
44674;PMS5003;30388;52.038;-1.478;2022-10-16T10:25:24;5000;5000;
44674;PMS5003;30388;52.038;-1.478;2022-10-16T10:28:38;5000;5000;
44674;PMS5003;30388;52.038;-1.478;2022-10-16T10:31:20;4990;4990;
44674;PMS5003;30388;52.038;-1.478;2022-10-16T10:33:54;5000;5000;
44674;PMS5003;30388;52.038;-1.478;2022-10-16T10:36:28;5000;5000;
44674;PMS5003;30388;52.038;-1.478;2022-10-16T10:38:59;5000;5000;
44674;PMS5003;30388;52.038;-1.478;2022-10-16T10:41:39;5000;5000;
44674;PMS5003;30388;52.038;-1.478;2022-10-16T10:44:26;5000;5000;
44674;PMS5003;30388;52.038;-1.478;2022-10-16T10:47:05;5000;5000;
44674;PMS5003;30388;52.038;-1.478;2022-10-16T10:49:46;4960;4960;
44674;PMS5003;30388;52.038;-1.478;2022-10-16T10:52:29;5000;5000;
44674;PMS5003;30388;52.038;-1.478;2022-10-16T10:55:09;4990;4990;
44674;PMS5003;30388;52.038;-1.478;2022-10-16T10:57:44;5000;5000;
44674;PMS5003;30388;52.038;-1.478;2022-10-16T11:00:24;5000;5000;
44674;PMS5003;30388;52.038;-1.478;2022-10-16T11:02:58;4990;4990;
44674;PMS5003;30388;52.038;-1.478;2022-10-16T11:05:37;5000;5000;
44674;PMS5003;30388;52.038;-1.478;2022-10-16T11:08:10;4990;4990;
44674;PMS5003;30388;52.038;-1.478;2022-10-16T11:10:46;5000;5000;
44674;PMS5003;30388;52.038;-1.478;2022-10-16T11:13:21;5000;5000;
44674;PMS5003;30388;52.038;-1.478;2022-10-16T11:15:57;4990;4990;
44674;PMS5003;30388;52.038;-1.478;2022-10-16T11:18:30;5000;5000;
44674;PMS5003;30388;52.038;-1.478;2022-10-16T11:21:08;5000;5000;
44674;PMS5003;30388;52.038;-1.478;2022-10-16T11:23:41;4990;4990;
44674;PMS5003;30388;52.038;-1.478;2022-10-16T11:26:14;4970;4970;
44674;PMS5003;30388;52.038;-1.478;2022-10-16T11:28:46;5000;5000;
44674;PMS5003;30388;52.038;-1.478;2022-10-16T11:31:19;4990;4990;
44674;PMS5003;30388;52.038;-1.478;2022-10-16T11:33:55;5000;5000;
44674;PMS5003;30388;52.038;-1.478;2022-10-16T11:36:31;4990;4990;
44674;PMS5003;30388;52.038;-1.478;2022-10-16T11:39:08;5000;5000;
44674;PMS5003;30388;52.038;-1.478;2022-10-16T11:41:47;5009;5009;
44674;PMS5003;30388;52.038;-1.478;2022-10-16T11:44:20;5000;5000;
44674;PMS5003;30388;52.038;-1.478;2022-10-16T11:47:03;5000;5000;
44674;PMS5003;30388;52.038;-1.478;2022-10-16T11:49:39;5000;5000;
44674;PMS5003;30388;52.038;-1.478;2022-10-16T11:52:11;4990;4990;
44674;PMS5003;30388;52.038;-1.478;2022-10-16T11:54:45;5000;5000;
44674;PMS5003;30388;52.038;-1.478;2022-10-16T11:57:19;5000;5000;
44674;PMS5003;30388;52.038;-1.478;2022-10-16T11:59:52;5000;5000;
44674;PMS5003;30388;52.038;-1.478;2022-10-16T12:02:26;4990;4990;
44674;PMS5003;30388;52.038;-1.478;2022-10-16T12:05:03;4990;4990;
44674;PMS5003;30388;52.038;-1.478;2022-10-16T12:07:43;5000;5000;
44674;PMS5003;30388;52.038;-1.478;2022-10-16T12:10:18;4980;4980;
44674;PMS5003;30388;52.038;-1.478;2022-10-16T12:12:48;5000;5000;
44674;PMS5003;30388;52.038;-1.478;2022-10-16T12:15:20;5000;5000;
44674;PMS5003;30388;52.038;-1.478;2022-10-16T12:17:49;5000;5000;
44674;PMS5003;30388;52.038;-1.478;2022-10-16T12:20:20;5000;5000;
44674;PMS5003;30388;52.038;-1.478;2022-10-16T12:22:50;5000;5000;
44674;PMS5003;30388;52.038;-1.478;2022-10-16T12:25:20;4990;4990;
44674;PMS5003;30388;52.038;-1.478;2022-10-16T12:28:06;5000;5000;
44674;PMS5003;30388;52.038;-1.478;2022-10-16T12:30:52;5000;5000;
44674;PMS5003;30388;52.038;-1.478;2022-10-16T12:33:21;5000;5000;
44674;PMS5003;30388;52.038;-1.478;2022-10-16T12:35:51;5000;5000;
44674;PMS5003;30388;52.038;-1.478;2022-10-16T12:38:20;5000;5000;
44674;PMS5003;30388;52.038;-1.478;2022-10-16T12:40:57;5000;5000;
44674;PMS5003;30388;52.038;-1.478;2022-10-16T12:43:28;5000;5000;
44674;PMS5003;30388;52.038;-1.478;2022-10-16T12:46:04;4960;4960;
44674;PMS5003;30388;52.038;-1.478;2022-10-16T12:48:47;5000;5000;
44674;PMS5003;30388;52.038;-1.478;2022-10-16T12:51:22;4990;4990;
44674;PMS5003;30388;52.038;-1.478;2022-10-16T12:53:58;5000;5000;
44674;PMS5003;30388;52.038;-1.478;2022-10-16T12:56:28;5000;5000;
44674;PMS5003;30388;52.038;-1.478;2022-10-16T12:59:08;5000;5000;
44674;PMS5003;30388;52.038;-1.478;2022-10-16T13:01:47;5000;5000;
44674;PMS5003;30388;52.038;-1.478;2022-10-16T13:04:47;5000;5000;
44674;PMS5003;30388;52.038;-1.478;2022-10-16T13:08:01;5000;5000;
44674;PMS5003;30388;52.038;-1.478;2022-10-16T13:10:41;5000;5000;
44674;PMS5003;30388;52.038;-1.478;2022-10-16T13:13:23;5000;5000;
44674;PMS5003;30388;52.038;-1.478;2022-10-16T13:16:10;4990;4990;
44674;PMS5003;30388;52.038;-1.478;2022-10-16T13:18:48;4990;4990;
44674;PMS5003;30388;52.038;-1.478;2022-10-16T13:21:29;4990;4990;
44674;PMS5003;30388;52.038;-1.478;2022-10-16T13:24:08;5000;5000;
44674;PMS5003;30388;52.038;-1.478;2022-10-16T13:26:49;5009;5009;
44674;PMS5003;30388;52.038;-1.478;2022-10-16T13:29:21;5019;5019;
44674;PMS5003;30388;52.038;-1.478;2022-10-16T13:31:48;5000;5000;
44674;PMS5003;30388;52.038;-1.478;2022-10-16T13:34:17;5000;5000;
44674;PMS5003;30388;52.038;-1.478;2022-10-16T13:36:49;4990;4990;
44674;PMS5003;30388;52.038;-1.478;2022-10-16T13:39:21;5000;5000;
44674;PMS5003;30388;52.038;-1.478;2022-10-16T13:42:03;5000;5000;
44674;PMS5003;30388;52.038;-1.478;2022-10-16T13:44:36;5009;5009;
44674;PMS5003;30388;52.038;-1.478;2022-10-16T13:47:12;5000;5000;
44674;PMS5003;30388;52.038;-1.478;2022-10-16T13:49:44;5000;5000;
44674;PMS5003;30388;52.038;-1.478;2022-10-16T13:52:17;5000;5000;
44674;PMS5003;30388;52.038;-1.478;2022-10-16T13:54:47;5000;5000;
44674;PMS5003;30388;52.038;-1.478;2022-10-16T13:57:17;5000;5000;
44674;PMS5003;30388;52.038;-1.478;2022-10-16T13:59:48;5000;5000;
44674;PMS5003;30388;52.038;-1.478;2022-10-16T14:02:18;5000;5000;
44674;PMS5003;30388;52.038;-1.478;2022-10-16T14:04:51;5000;5000;
44674;PMS5003;30388;52.038;-1.478;2022-10-16T14:07:23;5000;5000;
44674;PMS5003;30388;52.038;-1.478;2022-10-16T14:10:03;4990;4990;
44674;PMS5003;30388;52.038;-1.478;2022-10-16T14:12:37;4990;4990;
44674;PMS5003;30388;52.038;-1.478;2022-10-16T14:15:15;5000;5000;
44674;PMS5003;30388;52.038;-1.478;2022-10-16T14:17:48;5000;5000;
44674;PMS5003;30388;52.038;-1.478;2022-10-16T14:20:20;5000;5000;
44674;PMS5003;30388;52.038;-1.478;2022-10-16T14:22:59;5009;5009;
44674;PMS5003;30388;52.038;-1.478;2022-10-16T14:25:29;5009;5009;
44674;PMS5003;30388;52.038;-1.478;2022-10-16T14:27:58;5000;5000;
44674;PMS5003;30388;52.038;-1.478;2022-10-16T14:30:28;4990;4990;
44674;PMS5003;30388;52.038;-1.478;2022-10-16T14:33:01;4990;4990;
44674;PMS5003;30388;52.038;-1.478;2022-10-16T14:35:32;5000;5000;
44674;PMS5003;30388;52.038;-1.478;2022-10-16T14:38:02;5000;5000;
44674;PMS5003;30388;52.038;-1.478;2022-10-16T14:40:32;5000;5000;
44674;PMS5003;30388;52.038;-1.478;2022-10-16T14:43:01;5000;5000;
44674;PMS5003;30388;52.038;-1.478;2022-10-16T14:45:30;5000;5000;
44674;PMS5003;30388;52.038;-1.478;2022-10-16T14:48:02;5000;5000;
44674;PMS5003;30388;52.038;-1.478;2022-10-16T14:50:40;5000;5000;
44674;PMS5003;30388;52.038;-1.478;2022-10-16T14:53:08;4990;4990;
44674;PMS5003;30388;52.038;-1.478;2022-10-16T14:55:38;5000;5000;
44674;PMS5003;30388;52.038;-1.478;2022-10-16T14:58:07;5000;5000;
44674;PMS5003;30388;52.038;-1.478;2022-10-16T15:00:40;4990;4990;
44674;PMS5003;30388;52.038;-1.478;2022-10-16T15:03:08;5101;5101;
44674;PMS5003;30388;52.038;-1.478;2022-10-16T15:05:35;4990;4990;
44674;PMS5003;30388;52.038;-1.478;2022-10-16T15:08:03;5000;5000;
44674;PMS5003;30388;52.038;-1.478;2022-10-16T15:10:31;5000;5000;
44674;PMS5003;30388;52.038;-1.478;2022-10-16T15:13:04;5000;5000;
44674;PMS5003;30388;52.038;-1.478;2022-10-16T15:15:33;5000;5000;
44674;PMS5003;30388;52.038;-1.478;2022-10-16T15:18:03;5000;5000;
44674;PMS5003;30388;52.038;-1.478;2022-10-16T15:20:32;5000;5000;
44674;PMS5003;30388;52.038;-1.478;2022-10-16T15:23:01;5000;5000;
44674;PMS5003;30388;52.038;-1.478;2022-10-16T15:25:32;5000;5000;